METAR Data
IDs: Format: Raw Decoded Include TAF

Data at: 2148 UTC 18 Sep 2018

KMYL 182051Z AUTO VRB03KT 10SM CLR 21/M01 A2998 RMK AO2 SLP127 T02111011 58006
KMYL 181951Z AUTO 28008KT 10SM CLR 19/00 A2999 RMK AO2 SLP128 T01940000
KMYL 181851Z AUTO 26003KT 10SM CLR 17/00 A2999 RMK AO2 SLP133 T01720000
KMYL 181751Z AUTO 00000KT 10SM CLR 16/M01 A3000 RMK AO2 SLP133 T01611006 10167 21006 58005
KMYL 181651Z AUTO 00000KT 10SM CLR 12/M02 A3001 RMK AO2 SLP144 T01221017
KMYL 181551Z AUTO 00000KT 10SM CLR 08/M01 A3001 RMK AO2 SLP147 T00831006
KMYL 181451Z AUTO 00000KT 10SM CLR 04/M02 A3002 RMK AO2 SLP157 T00391017 53003
KMYL 181351Z AUTO 00000KT 10SM CLR 00/M04 A3001 RMK AO2 SLP152 T00001039
KMYL 181251Z AUTO 00000KT 10SM CLR 00/M03 A3001 RMK AO2 SLP145 T00001033
KMYL 181151Z AUTO 00000KT 10SM CLR 02/M03 A3000 RMK AO2 SLP139 T00171028 10094 20017 58002
KMYL 181051Z AUTO 00000KT 10SM CLR 02/M02 A3001 RMK AO2 SLP140 T00171017
KMYL 180951Z AUTO 00000KT 10SM CLR 03/M01 A3001 RMK AO2 SLP140 T00281006
KMYL 180851Z AUTO VRB03KT 10SM CLR 03/M01 A3001 RMK AO2 SLP138 T00331006 55000
KMYL 180751Z AUTO VRB03KT 10SM CLR 07/01 A3001 RMK AO2 SLP134 T00720006
KMYL 180651Z AUTO 30003KT 10SM CLR 07/02 A3001 RMK AO2 SLP137 T00720017 402171006
KMYL 180551Z AUTO 00000KT 10SM CLR 09/01 A3001 RMK AO2 SLP139 T00890011 10211 20083 50005
KMYL 180451Z AUTO 35003KT 10SM CLR 09/M01 A3001 RMK AO2 SLP146 T00891011
KMYL 180351Z AUTO 34005KT 10SM CLR 11/M02 A3001 RMK AO2 SLP149 T01111022 TSNO
KMYL 180251Z AUTO 05005KT 10SM CLR 12/M04 A2999 RMK AO2 SLP149 T01171044 53001 TSNO
KMYL 180151Z AUTO 28003KT 10SM CLR 17/M06 A2999 RMK AO2 SLP144 T01721061
KMYL 180051Z AUTO 25004KT 10SM CLR 20/M07 A2998 RMK AO2 SLP136 T02001067
KMYL 172351Z AUTO 20004KT 10SM CLR 21/M07 A2999 RMK AO2 SLP137 T02111072 10217 20150 56009
KMYL 172251Z AUTO 17009G17KT 10SM CLR 22/M08 A2999 RMK AO2 SLP136 T02171078
KMYL 172151Z AUTO 18009G15KT 10SM CLR 21/M06 A3000 RMK AO2 SLP139 T02111061
KMYL 172051Z AUTO 17010G18KT 10SM CLR 22/M04 A3002 RMK AO2 SLP142 T02171044 58016
KMYL 171951Z AUTO VRB06KT 10SM CLR 19/M02 A3004 RMK AO2 SLP154 T01891017
KMYL 171851Z AUTO 00000KT 10SM CLR 17/M01 A3006 RMK AO2 SLP160 T01721011
KMYL 171751Z AUTO 00000KT 10SM CLR 15/00 A3007 RMK AO2 SLP167 T01500000 10150 21006 58005
KMYL 171651Z AUTO 00000KT 10SM CLR 12/01 A3009 RMK AO2 SLP175 T01170011
KMYL 171551Z AUTO 00000KT 10SM CLR 08/01 A3009 RMK AO2 SLP178 T00780006
KMYL 171451Z AUTO 00000KT 10SM CLR 03/M01 A3009 RMK AO2 SLP185 T00331011 53006
KMYL 171351Z AUTO 00000KT 10SM CLR M01/M03 A3008 RMK AO2 SLP183 T10061033
KMYL 171251Z AUTO 06003KT 10SM CLR 00/M03 A3008 RMK AO2 SLP175 T00001028
KMYL 171151Z AUTO 00000KT 10SM CLR 00/M03 A3007 RMK AO2 SLP173 T00001033 10056 20000 53001
KMYL 171051Z AUTO 00000KT 10SM CLR 02/M03 A3006 RMK AO2 SLP168 T00171028
KMYL 170951Z AUTO 00000KT 10SM CLR 02/M02 A3006 RMK AO2 SLP164 T00221022